sensor_id;sensor_type;location;lat;lon;timestamp;pressure;altitude;pressure_sealevel;temperature;humidity
41202;BME280;26936;50.524;8.684;2023-05-09T00:00:13;99675.72;;;14.49;100.00
41202;BME280;26936;50.524;8.684;2023-05-09T00:02:39;99680.44;;;14.43;100.00
41202;BME280;26936;50.524;8.684;2023-05-09T00:05:05;99677.75;;;14.39;100.00
41202;BME280;26936;50.524;8.684;2023-05-09T00:07:34;99679.50;;;14.37;100.00
41202;BME280;26936;50.524;8.684;2023-05-09T00:09:59;99682.50;;;14.33;100.00
41202;BME280;26936;50.524;8.684;2023-05-09T00:12:26;99674.94;;;14.30;100.00
41202;BME280;26936;50.524;8.684;2023-05-09T00:14:52;99681.84;;;14.29;100.00
41202;BME280;26936;50.524;8.684;2023-05-09T00:17:18;99673.19;;;14.24;100.00
41202;BME280;26936;50.524;8.684;2023-05-09T00:19:47;99662.78;;;14.21;100.00
41202;BME280;26936;50.524;8.684;2023-05-09T00:22:12;99661.03;;;14.23;100.00
41202;BME280;26936;50.524;8.684;2023-05-09T00:24:37;99666.38;;;14.21;100.00
41202;BME280;26936;50.524;8.684;2023-05-09T00:27:03;99656.31;;;14.20;100.00
41202;BME280;26936;50.524;8.684;2023-05-09T00:29:28;99653.81;;;14.22;100.00
41202;BME280;26936;50.524;8.684;2023-05-09T00:31:53;99649.09;;;14.19;100.00
41202;BME280;26936;50.524;8.684;2023-05-09T00:34:19;99640.13;;;14.21;100.00
41202;BME280;26936;50.524;8.684;2023-05-09T00:36:45;99641.41;;;14.29;100.00
41202;BME280;26936;50.524;8.684;2023-05-09T00:39:10;99637.00;;;14.28;100.00
41202;BME280;26936;50.524;8.684;2023-05-09T00:41:35;99638.44;;;14.32;100.00
41202;BME280;26936;50.524;8.684;2023-05-09T00:44:01;99639.53;;;14.35;100.00
41202;BME280;26936;50.524;8.684;2023-05-09T00:46:26;99631.81;;;14.35;100.00
41202;BME280;26936;50.524;8.684;2023-05-09T00:48:52;99624.56;;;14.43;100.00
41202;BME280;26936;50.524;8.684;2023-05-09T00:51:17;99623.28;;;14.44;100.00
41202;BME280;26936;50.524;8.684;2023-05-09T00:53:44;99617.63;;;14.53;100.00
41202;BME280;26936;50.524;8.684;2023-05-09T00:56:10;99619.19;;;14.54;100.00
41202;BME280;26936;50.524;8.684;2023-05-09T00:58:36;99612.91;;;14.59;100.00
41202;BME280;26936;50.524;8.684;2023-05-09T01:01:01;99617.63;;;14.71;100.00
41202;BME280;26936;50.524;8.684;2023-05-09T01:03:28;99620.44;;;14.71;100.00
41202;BME280;26936;50.524;8.684;2023-05-09T01:08:31;99610.66;;;14.72;100.00
41202;BME280;26936;50.524;8.684;2023-05-09T01:11:51;99608.47;;;14.67;100.00
41202;BME280;26936;50.524;8.684;2023-05-09T01:14:13;99609.28;;;14.68;100.00
41202;BME280;26936;50.524;8.684;2023-05-09T01:22:28;99616.06;;;14.61;100.00
41202;BME280;26936;50.524;8.684;2023-05-09T01:27:56;99614.31;;;14.73;100.00
41202;BME280;26936;50.524;8.684;2023-05-09T01:30:23;99605.00;;;14.72;100.00
41202;BME280;26936;50.524;8.684;2023-05-09T01:32:50;99605.31;;;14.65;100.00
41202;BME280;26936;50.524;8.684;2023-05-09T01:35:19;99604.56;;;14.65;100.00
41202;BME280;26936;50.524;8.684;2023-05-09T01:37:48;99597.78;;;14.62;100.00
41202;BME280;26936;50.524;8.684;2023-05-09T01:40:16;99599.34;;;14.63;100.00
41202;BME280;26936;50.524;8.684;2023-05-09T01:43:05;99600.00;;;14.58;100.00
41202;BME280;26936;50.524;8.684;2023-05-09T01:45:32;99602.84;;;14.58;100.00
41202;BME280;26936;50.524;8.684;2023-05-09T01:47:59;99594.78;;;14.57;100.00
41202;BME280;26936;50.524;8.684;2023-05-09T01:50:25;99594.97;;;14.53;100.00
41202;BME280;26936;50.524;8.684;2023-05-09T01:52:55;99595.25;;;14.55;100.00
41202;BME280;26936;50.524;8.684;2023-05-09T01:55:21;99594.78;;;14.57;100.00
41202;BME280;26936;50.524;8.684;2023-05-09T01:57:52;99584.09;;;14.52;100.00
41202;BME280;26936;50.524;8.684;2023-05-09T02:00:18;99592.13;;;14.53;100.00
41202;BME280;26936;50.524;8.684;2023-05-09T02:02:44;99588.66;;;14.49;100.00
41202;BME280;26936;50.524;8.684;2023-05-09T02:05:10;99589.28;;;14.44;100.00
41202;BME280;26936;50.524;8.684;2023-05-09T02:07:36;99582.50;;;14.51;100.00
41202;BME280;26936;50.524;8.684;2023-05-09T02:10:04;99581.44;;;14.48;100.00
41202;BME280;26936;50.524;8.684;2023-05-09T02:12:31;99578.56;;;14.57;100.00
41202;BME280;26936;50.524;8.684;2023-05-09T02:14:56;99577.00;;;14.56;100.00
41202;BME280;26936;50.524;8.684;2023-05-09T02:17:21;99569.28;;;14.48;100.00
41202;BME280;26936;50.524;8.684;2023-05-09T02:19:47;99561.13;;;14.41;100.00
41202;BME280;26936;50.524;8.684;2023-05-09T02:22:12;99557.81;;;14.42;100.00
41202;BME280;26936;50.524;8.684;2023-05-09T02:24:39;99558.00;;;14.39;100.00
41202;BME280;26936;50.524;8.684;2023-05-09T02:27:04;99558.28;;;14.50;100.00
41202;BME280;26936;50.524;8.684;2023-05-09T02:29:49;99563.91;;;14.68;100.00
41202;BME280;26936;50.524;8.684;2023-05-09T02:32:25;99560.75;;;14.66;100.00
41202;BME280;26936;50.524;8.684;2023-05-09T02:34:52;99554.66;;;14.58;100.00
41202;BME280;26936;50.524;8.684;2023-05-09T02:37:18;99551.19;;;14.54;100.00
41202;BME280;26936;50.524;8.684;2023-05-09T02:39:44;99554.66;;;14.49;100.00
41202;BME280;26936;50.524;8.684;2023-05-09T02:42:12;99547.59;;;14.45;100.00
41202;BME280;26936;50.524;8.684;2023-05-09T02:44:38;99548.78;;;14.71;100.00
41202;BME280;26936;50.524;8.684;2023-05-09T02:47:05;99549.09;;;14.64;100.00
41202;BME280;26936;50.524;8.684;2023-05-09T02:49:31;99547.88;;;14.56;100.00
41202;BME280;26936;50.524;8.684;2023-05-09T02:51:56;99541.41;;;14.55;100.00
41202;BME280;26936;50.524;8.684;2023-05-09T02:54:21;99543.91;;;14.62;100.00
41202;BME280;26936;50.524;8.684;2023-05-09T02:56:47;99530.06;;;14.55;100.00
41202;BME280;26936;50.524;8.684;2023-05-09T02:59:12;99530.66;;;14.68;100.00
41202;BME280;26936;50.524;8.684;2023-05-09T03:01:37;99521.22;;;14.71;100.00
41202;BME280;26936;50.524;8.684;2023-05-09T03:04:03;99513.81;;;14.74;100.00
41202;BME280;26936;50.524;8.684;2023-05-09T03:06:28;99521.25;;;14.62;100.00
41202;BME280;26936;50.524;8.684;2023-05-09T03:08:53;99517.97;;;14.55;100.00
41202;BME280;26936;50.524;8.684;2023-05-09T03:11:18;99529.63;;;14.48;100.00
41202;BME280;26936;50.524;8.684;2023-05-09T03:13:44;99528.06;;;14.47;100.00
41202;BME280;26936;50.524;8.684;2023-05-09T03:16:12;99530.94;;;14.29;100.00
41202;BME280;26936;50.524;8.684;2023-05-09T03:18:38;99535.00;;;14.19;100.00
41202;BME280;26936;50.524;8.684;2023-05-09T03:21:04;99540.03;;;14.15;100.00
41202;BME280;26936;50.524;8.684;2023-05-09T03:23:29;99531.41;;;14.09;100.00
41202;BME280;26936;50.524;8.684;2023-05-09T03:25:54;99533.09;;;14.07;100.00
41202;BME280;26936;50.524;8.684;2023-05-09T03:28:20;99533.09;;;14.07;100.00
41202;BME280;26936;50.524;8.684;2023-05-09T03:30:45;99530.44;;;14.03;100.00
41202;BME280;26936;50.524;8.684;2023-05-09T03:33:10;99532.94;;;14.10;100.00
41202;BME280;26936;50.524;8.684;2023-05-09T03:35:36;99532.78;;;14.05;100.00
41202;BME280;26936;50.524;8.684;2023-05-09T03:38:01;99540.19;;;14.02;100.00
41202;BME280;26936;50.524;8.684;2023-05-09T03:40:26;99529.97;;;14.05;100.00
41202;BME280;26936;50.524;8.684;2023-05-09T03:42:52;99524.78;;;14.12;100.00
41202;BME280;26936;50.524;8.684;2023-05-09T03:45:17;99522.75;;;14.13;100.00
41202;BME280;26936;50.524;8.684;2023-05-09T03:47:42;99527.28;;;14.10;100.00
41202;BME280;26936;50.524;8.684;2023-05-09T03:50:08;99521.94;;;14.03;100.00
41202;BME280;26936;50.524;8.684;2023-05-09T03:52:34;99517.38;;;14.06;100.00
41202;BME280;26936;50.524;8.684;2023-05-09T03:55:01;99508.72;;;14.18;100.00
41202;BME280;26936;50.524;8.684;2023-05-09T03:57:26;99514.06;;;14.16;100.00
41202;BME280;26936;50.524;8.684;2023-05-09T03:59:51;99514.22;;;14.31;100.00
41202;BME280;26936;50.524;8.684;2023-05-09T04:02:17;99509.50;;;14.28;100.00
41202;BME280;26936;50.524;8.684;2023-05-09T04:04:42;99506.03;;;14.24;100.00
41202;BME280;26936;50.524;8.684;2023-05-09T04:07:07;99501.81;;;14.19;100.00
41202;BME280;26936;50.524;8.684;2023-05-09T04:09:33;99500.25;;;14.27;100.00
41202;BME280;26936;50.524;8.684;2023-05-09T04:11:58;99495.94;;;14.23;100.00
41202;BME280;26936;50.524;8.684;2023-05-09T04:14:23;99490.00;;;14.21;100.00
41202;BME280;26936;50.524;8.684;2023-05-09T04:16:49;99484.50;;;14.17;100.00
41202;BME280;26936;50.524;8.684;2023-05-09T04:19:14;99489.19;;;14.20;100.00
41202;BME280;26936;50.524;8.684;2023-05-09T04:21:39;99491.56;;;14.22;100.00
41202;BME280;26936;50.524;8.684;2023-05-09T04:24:05;99490.91;;;14.18;100.00
41202;BME280;26936;50.524;8.684;2023-05-09T04:26:30;99484.66;;;14.32;100.00
41202;BME280;26936;50.524;8.684;2023-05-09T04:28:55;99486.84;;;14.28;100.00
41202;BME280;26936;50.524;8.684;2023-05-09T04:31:21;99480.06;;;14.34;100.00
41202;BME280;26936;50.524;8.684;2023-05-09T04:33:47;99484.44;;;14.44;100.00
41202;BME280;26936;50.524;8.684;2023-05-09T04:36:12;99489.63;;;14.55;100.00
41202;BME280;26936;50.524;8.684;2023-05-09T04:38:37;99491.19;;;14.56;100.00
41202;BME280;26936;50.524;8.684;2023-05-09T04:41:03;99497.66;;;14.56;100.00
41202;BME280;26936;50.524;8.684;2023-05-09T04:43:28;99497.16;;;14.58;100.00
41202;BME280;26936;50.524;8.684;2023-05-09T04:45:53;99496.69;;;14.50;100.00
41202;BME280;26936;50.524;8.684;2023-05-09T04:48:19;99498.13;;;14.55;100.00
41202;BME280;26936;50.524;8.684;2023-05-09T04:50:44;99502.31;;;14.68;100.00
41202;BME280;26936;50.524;8.684;2023-05-09T04:53:12;99495.88;;;14.68;100.00
41202;BME280;26936;50.524;8.684;2023-05-09T04:55:37;99491.75;;;14.69;100.00
41202;BME280;26936;50.524;8.684;2023-05-09T04:58:03;99480.09;;;14.76;100.00
41202;BME280;26936;50.524;8.684;2023-05-09T05:00:28;99476.78;;;14.77;100.00
41202;BME280;26936;50.524;8.684;2023-05-09T05:02:54;99471.91;;;14.69;100.00
41202;BME280;26936;50.524;8.684;2023-05-09T05:05:19;99458.97;;;14.77;100.00
41202;BME280;26936;50.524;8.684;2023-05-09T05:07:45;99452.78;;;14.87;100.00
41202;BME280;26936;50.524;8.684;2023-05-09T05:10:10;99446.56;;;14.74;100.00
41202;BME280;26936;50.524;8.684;2023-05-09T05:12:35;99446.56;;;14.65;100.00
41202;BME280;26936;50.524;8.684;2023-05-09T05:15:01;99452.91;;;14.93;100.00
41202;BME280;26936;50.524;8.684;2023-05-09T05:17:26;99448.94;;;14.99;100.00
41202;BME280;26936;50.524;8.684;2023-05-09T05:19:53;99446.50;;;14.83;100.00
41202;BME280;26936;50.524;8.684;2023-05-09T05:22:18;99448.84;;;14.85;100.00
41202;BME280;26936;50.524;8.684;2023-05-09T05:24:44;99444.56;;;14.89;100.00
41202;BME280;26936;50.524;8.684;2023-05-09T05:27:09;99451.19;;;14.86;100.00
41202;BME280;26936;50.524;8.684;2023-05-09T05:29:34;99438.78;;;15.08;100.00
41202;BME280;26936;50.524;8.684;2023-05-09T05:31:59;99447.03;;;15.53;100.00
41202;BME280;26936;50.524;8.684;2023-05-09T05:34:25;99441.06;;;16.03;100.00
41202;BME280;26936;50.524;8.684;2023-05-09T05:36:50;99455.09;;;16.65;100.00
41202;BME280;26936;50.524;8.684;2023-05-09T05:39:15;99437.78;;;17.18;100.00
41202;BME280;26936;50.524;8.684;2023-05-09T05:41:41;99437.91;;;17.89;95.11
41202;BME280;26936;50.524;8.684;2023-05-09T05:44:06;99440.56;;;18.44;91.71
41202;BME280;26936;50.524;8.684;2023-05-09T05:46:31;99443.00;;;18.87;89.59
41202;BME280;26936;50.524;8.684;2023-05-09T05:48:56;99448.38;;;19.17;86.56
41202;BME280;26936;50.524;8.684;2023-05-09T05:51:22;99451.47;;;19.55;85.46
41202;BME280;26936;50.524;8.684;2023-05-09T05:53:47;99443.03;;;19.88;83.02
41202;BME280;26936;50.524;8.684;2023-05-09T05:56:12;99446.78;;;20.28;79.36
41202;BME280;26936;50.524;8.684;2023-05-09T05:58:38;99449.91;;;20.35;77.92
41202;BME280;26936;50.524;8.684;2023-05-09T06:01:03;99444.31;;;19.87;80.25
41202;BME280;26936;50.524;8.684;2023-05-09T06:03:28;99449.13;;;20.35;78.76
41202;BME280;26936;50.524;8.684;2023-05-09T06:05:54;99442.38;;;20.38;79.15
41202;BME280;26936;50.524;8.684;2023-05-09T06:08:20;99448.09;;;20.60;79.19
41202;BME280;26936;50.524;8.684;2023-05-09T06:10:45;99445.66;;;21.46;74.01
41202;BME280;26936;50.524;8.684;2023-05-09T06:13:11;99443.63;;;21.25;74.46
41202;BME280;26936;50.524;8.684;2023-05-09T06:15:36;99441.53;;;21.36;72.49
41202;BME280;26936;50.524;8.684;2023-05-09T06:18:01;99443.38;;;21.23;72.30
41202;BME280;26936;50.524;8.684;2023-05-09T06:20:27;99442.63;;;21.22;71.62
41202;BME280;26936;50.524;8.684;2023-05-09T06:22:52;99438.22;;;21.10;72.63
41202;BME280;26936;50.524;8.684;2023-05-09T06:25:17;99437.41;;;20.27;76.49
41202;BME280;26936;50.524;8.684;2023-05-09T06:27:43;99438.75;;;20.70;75.16
41202;BME280;26936;50.524;8.684;2023-05-09T06:30:09;99449.16;;;20.84;73.38
41202;BME280;26936;50.524;8.684;2023-05-09T06:32:34;99444.16;;;20.30;76.56
41202;BME280;26936;50.524;8.684;2023-05-09T06:34:59;99445.19;;;20.15;76.94
41202;BME280;26936;50.524;8.684;2023-05-09T06:37:25;99437.81;;;19.92;77.41
41202;BME280;26936;50.524;8.684;2023-05-09T06:39:50;99434.41;;;19.83;79.01
41202;BME280;26936;50.524;8.684;2023-05-09T06:42:15;99430.69;;;19.55;80.89
41202;BME280;26936;50.524;8.684;2023-05-09T06:44:41;99417.09;;;19.33;81.85
41202;BME280;26936;50.524;8.684;2023-05-09T06:47:08;99415.59;;;19.49;81.27
41202;BME280;26936;50.524;8.684;2023-05-09T06:49:33;99416.03;;;19.31;81.40
41202;BME280;26936;50.524;8.684;2023-05-09T06:51:58;99412.03;;;19.17;82.43
41202;BME280;26936;50.524;8.684;2023-05-09T06:54:24;99408.41;;;19.17;83.25
41202;BME280;26936;50.524;8.684;2023-05-09T06:56:49;99414.53;;;18.99;83.57
41202;BME280;26936;50.524;8.684;2023-05-09T06:59:14;99405.47;;;19.06;82.22
41202;BME280;26936;50.524;8.684;2023-05-09T07:01:40;99402.53;;;18.89;83.79
41202;BME280;26936;50.524;8.684;2023-05-09T07:04:06;99404.00;;;18.42;84.69
41202;BME280;26936;50.524;8.684;2023-05-09T07:06:31;99397.91;;;18.04;88.06
41202;BME280;26936;50.524;8.684;2023-05-09T07:08:57;99408.16;;;18.16;87.89
41202;BME280;26936;50.524;8.684;2023-05-09T07:11:22;99406.44;;;18.29;87.60
41202;BME280;26936;50.524;8.684;2023-05-09T07:13:48;99400.38;;;18.16;88.69
41202;BME280;26936;50.524;8.684;2023-05-09T07:16:13;99404.88;;;18.90;86.56
41202;BME280;26936;50.524;8.684;2023-05-09T07:18:38;99390.78;;;19.24;84.03
41202;BME280;26936;50.524;8.684;2023-05-09T07:21:04;99377.34;;;19.30;82.61
41202;BME280;26936;50.524;8.684;2023-05-09T07:23:29;99393.59;;;19.71;80.14
41202;BME280;26936;50.524;8.684;2023-05-09T07:25:56;99381.41;;;19.87;79.07
41202;BME280;26936;50.524;8.684;2023-05-09T07:28:22;99373.19;;;20.61;76.31
41202;BME280;26936;50.524;8.684;2023-05-09T07:30:47;99383.81;;;20.99;74.02
41202;BME280;26936;50.524;8.684;2023-05-09T07:33:13;99378.84;;;21.11;73.13
41202;BME280;26936;50.524;8.684;2023-05-09T07:35:38;99376.50;;;21.09;73.17
41202;BME280;26936;50.524;8.684;2023-05-09T07:38:03;99374.97;;;20.81;75.32
41202;BME280;26936;50.524;8.684;2023-05-09T07:40:30;99372.66;;;20.52;75.76
41202;BME280;26936;50.524;8.684;2023-05-09T07:42:55;99360.97;;;20.55;75.81
41202;BME280;26936;50.524;8.684;2023-05-09T07:45:21;99350.81;;;20.54;76.59
41202;BME280;26936;50.524;8.684;2023-05-09T07:47:46;99359.16;;;20.69;74.43
41202;BME280;26936;50.524;8.684;2023-05-09T07:50:11;99367.41;;;20.89;73.49
41202;BME280;26936;50.524;8.684;2023-05-09T07:52:37;99357.31;;;20.77;74.09
41202;BME280;26936;50.524;8.684;2023-05-09T07:55:02;99354.44;;;20.77;75.30
41202;BME280;26936;50.524;8.684;2023-05-09T07:57:27;99347.38;;;20.89;73.88
41202;BME280;26936;50.524;8.684;2023-05-09T07:59:53;99347.94;;;20.60;75.81
41202;BME280;26936;50.524;8.684;2023-05-09T08:02:18;99341.91;;;21.02;75.14
41202;BME280;26936;50.524;8.684;2023-05-09T08:04:44;99331.97;;;21.08;74.04
41202;BME280;26936;50.524;8.684;2023-05-09T08:07:12;99330.78;;;21.44;71.91
41202;BME280;26936;50.524;8.684;2023-05-09T08:09:37;99324.81;;;21.42;70.16
41202;BME280;26936;50.524;8.684;2023-05-09T08:12:03;99333.31;;;20.85;74.13
41202;BME280;26936;50.524;8.684;2023-05-09T08:14:28;99318.00;;;20.88;74.17
41202;BME280;26936;50.524;8.684;2023-05-09T08:16:54;99309.41;;;20.77;75.32
41202;BME280;26936;50.524;8.684;2023-05-09T08:19:19;99309.75;;;21.31;73.79
41202;BME280;26936;50.524;8.684;2023-05-09T08:21:47;99320.75;;;21.73;70.08
41202;BME280;26936;50.524;8.684;2023-05-09T08:24:12;99310.94;;;21.52;70.15
41202;BME280;26936;50.524;8.684;2023-05-09T08:26:38;99307.75;;;21.15;71.98
41202;BME280;26936;50.524;8.684;2023-05-09T08:29:03;99303.81;;;21.18;73.11
41202;BME280;26936;50.524;8.684;2023-05-09T08:31:28;99302.28;;;21.11;73.50
41202;BME280;26936;50.524;8.684;2023-05-09T08:33:54;99312.84;;;20.48;76.21
41202;BME280;26936;50.524;8.684;2023-05-09T08:36:19;99297.50;;;20.12;77.45
41202;BME280;26936;50.524;8.684;2023-05-09T08:38:44;99292.59;;;19.85;79.01
41202;BME280;26936;50.524;8.684;2023-05-09T08:41:10;99294.66;;;20.12;79.72
41202;BME280;26936;50.524;8.684;2023-05-09T08:43:37;99288.94;;;20.12;78.67
41202;BME280;26936;50.524;8.684;2023-05-09T08:46:06;99291.81;;;20.01;78.50
41202;BME280;26936;50.524;8.684;2023-05-09T08:48:34;99293.88;;;19.95;77.97
41202;BME280;26936;50.524;8.684;2023-05-09T08:51:02;99284.75;;;19.69;79.37
41202;BME280;26936;50.524;8.684;2023-05-09T08:53:28;99288.41;;;19.75;78.25
41202;BME280;26936;50.524;8.684;2023-05-09T08:55:53;99292.81;;;19.76;78.18
41202;BME280;26936;50.524;8.684;2023-05-09T08:58:19;99279.25;;;19.44;79.77
41202;BME280;26936;50.524;8.684;2023-05-09T09:00:46;99277.94;;;19.34;79.88
41202;BME280;26936;50.524;8.684;2023-05-09T09:03:13;99276.09;;;19.31;81.55
41202;BME280;26936;50.524;8.684;2023-05-09T09:05:41;99279.84;;;18.94;84.33
41202;BME280;26936;50.524;8.684;2023-05-09T09:08:07;99280.16;;;19.02;83.45
41202;BME280;26936;50.524;8.684;2023-05-09T09:10:33;99274.09;;;18.83;85.30
41202;BME280;26936;50.524;8.684;2023-05-09T09:13:00;99273.59;;;18.90;84.35
41202;BME280;26936;50.524;8.684;2023-05-09T09:15:33;99277.50;;;18.93;83.58
41202;BME280;26936;50.524;8.684;2023-05-09T09:18:04;99265.75;;;18.80;86.95
41202;BME280;26936;50.524;8.684;2023-05-09T09:20:31;99274.38;;;18.85;84.86
41202;BME280;26936;50.524;8.684;2023-05-09T09:22:58;99256.38;;;18.68;85.09
41202;BME280;26936;50.524;8.684;2023-05-09T09:25:25;99263.47;;;18.89;85.85
41202;BME280;26936;50.524;8.684;2023-05-09T09:27:50;99253.16;;;19.03;83.18
41202;BME280;26936;50.524;8.684;2023-05-09T09:30:16;99254.47;;;19.08;82.66
41202;BME280;26936;50.524;8.684;2023-05-09T09:32:41;99250.31;;;19.14;82.73
41202;BME280;26936;50.524;8.684;2023-05-09T09:35:09;99244.34;;;19.12;85.60
41202;BME280;26936;50.524;8.684;2023-05-09T09:37:37;99249.03;;;19.10;85.59
41202;BME280;26936;50.524;8.684;2023-05-09T09:40:06;99255.31;;;19.30;84.42
41202;BME280;26936;50.524;8.684;2023-05-09T09:42:50;99246.41;;;19.06;82.59
41202;BME280;26936;50.524;8.684;2023-05-09T09:45:16;99242.47;;;18.87;84.61
41202;BME280;26936;50.524;8.684;2023-05-09T09:47:42;99236.28;;;19.00;85.83
41202;BME280;26936;50.524;8.684;2023-05-09T09:50:18;99234.66;;;18.82;86.23
41202;BME280;26936;50.524;8.684;2023-05-09T09:52:54;99223.22;;;18.76;86.19
41202;BME280;26936;50.524;8.684;2023-05-09T09:55:21;99224.72;;;18.66;86.12
41202;BME280;26936;50.524;8.684;2023-05-09T09:57:47;99210.59;;;18.94;86.26
41202;BME280;26936;50.524;8.684;2023-05-09T10:00:14;99216.22;;;18.77;88.35
41202;BME280;26936;50.524;8.684;2023-05-09T10:05:28;99215.72;;;18.84;88.15
41202;BME280;26936;50.524;8.684;2023-05-09T10:07:55;99209.59;;;19.14;85.93
41202;BME280;26936;50.524;8.684;2023-05-09T10:10:28;99200.75;;;19.17;85.53
41202;BME280;26936;50.524;8.684;2023-05-09T10:13:00;99197.38;;;19.02;88.39
41202;BME280;26936;50.524;8.684;2023-05-09T10:15:27;99197.63;;;19.04;88.98
41202;BME280;26936;50.524;8.684;2023-05-09T10:17:55;99197.56;;;18.82;88.19
41202;BME280;26936;50.524;8.684;2023-05-09T10:20:21;99198.38;;;18.99;87.70
41202;BME280;26936;50.524;8.684;2023-05-09T10:22:47;99192.44;;;19.08;87.40
41202;BME280;26936;50.524;8.684;2023-05-09T10:25:17;99190.31;;;18.81;88.47
41202;BME280;26936;50.524;8.684;2023-05-09T10:27:44;99190.28;;;18.75;87.93
41202;BME280;26936;50.524;8.684;2023-05-09T10:30:23;99176.97;;;18.56;89.55
41202;BME280;26936;50.524;8.684;2023-05-09T10:33:07;99185.81;;;18.58;89.00
41202;BME280;26936;50.524;8.684;2023-05-09T10:35:36;99172.84;;;18.62;89.78
41202;BME280;26936;50.524;8.684;2023-05-09T10:38:05;99173.16;;;18.75;89.61
41202;BME280;26936;50.524;8.684;2023-05-09T10:40:31;99168.78;;;18.85;89.16
41202;BME280;26936;50.524;8.684;2023-05-09T10:42:56;99162.34;;;19.02;88.29
41202;BME280;26936;50.524;8.684;2023-05-09T10:45:22;99161.34;;;19.21;88.43
41202;BME280;26936;50.524;8.684;2023-05-09T10:47:49;99152.75;;;19.21;88.23
41202;BME280;26936;50.524;8.684;2023-05-09T10:50:17;99159.75;;;19.15;87.82
41202;BME280;26936;50.524;8.684;2023-05-09T10:53:18;99143.16;;;19.19;88.78
41202;BME280;26936;50.524;8.684;2023-05-09T10:58:23;99148.91;;;19.52;85.38
41202;BME280;26936;50.524;8.684;2023-05-09T11:00:50;99141.66;;;19.51;88.09
41202;BME280;26936;50.524;8.684;2023-05-09T11:03:16;99126.56;;;19.61;85.67
41202;BME280;26936;50.524;8.684;2023-05-09T11:05:46;99128.13;;;19.73;86.17
41202;BME280;26936;50.524;8.684;2023-05-09T11:08:24;99124.53;;;19.40;86.76
41202;BME280;26936;50.524;8.684;2023-05-09T11:10:52;99123.22;;;19.30;86.87
41202;BME280;26936;50.524;8.684;2023-05-09T11:13:22;99125.81;;;19.33;88.23
41202;BME280;26936;50.524;8.684;2023-05-09T11:18:29;99118.25;;;19.19;89.28
41202;BME280;26936;50.524;8.684;2023-05-09T11:20:55;99116.44;;;19.27;88.92
41202;BME280;26936;50.524;8.684;2023-05-09T11:23:24;99104.75;;;19.14;89.51
41202;BME280;26936;50.524;8.684;2023-05-09T11:25:50;99109.16;;;19.10;89.79
41202;BME280;26936;50.524;8.684;2023-05-09T11:28:26;99109.41;;;19.17;90.43
41202;BME280;26936;50.524;8.684;2023-05-09T11:30:52;99109.16;;;19.21;89.88
41202;BME280;26936;50.524;8.684;2023-05-09T11:33:22;99108.41;;;19.31;88.27
41202;BME280;26936;50.524;8.684;2023-05-09T11:38:40;99092.03;;;19.21;88.08
41202;BME280;26936;50.524;8.684;2023-05-09T11:41:07;99081.91;;;19.20;88.08
41202;BME280;26936;50.524;8.684;2023-05-09T11:43:32;99089.72;;;19.14;87.48
41202;BME280;26936;50.524;8.684;2023-05-09T11:45:59;99080.63;;;19.15;88.54
41202;BME280;26936;50.524;8.684;2023-05-09T11:48:24;99070.75;;;19.05;89.30
41202;BME280;26936;50.524;8.684;2023-05-09T11:50:49;99071.53;;;19.17;89.35
41202;BME280;26936;50.524;8.684;2023-05-09T11:53:15;99061.66;;;19.23;88.65
41202;BME280;26936;50.524;8.684;2023-05-09T11:55:40;99054.44;;;19.33;88.37
41202;BME280;26936;50.524;8.684;2023-05-09T11:58:06;99064.00;;;19.47;87.28
41202;BME280;26936;50.524;8.684;2023-05-09T12:00:31;99054.66;;;19.52;86.18
41202;BME280;26936;50.524;8.684;2023-05-09T12:02:56;99055.69;;;19.65;86.34
41202;BME280;26936;50.524;8.684;2023-05-09T12:05:22;99055.16;;;19.72;85.89
41202;BME280;26936;50.524;8.684;2023-05-09T12:07:47;99051.22;;;19.81;84.74
41202;BME280;26936;50.524;8.684;2023-05-09T12:10:15;99042.06;;;19.99;85.12
41202;BME280;26936;50.524;8.684;2023-05-09T12:12:43;99037.91;;;20.00;82.72
41202;BME280;26936;50.524;8.684;2023-05-09T12:15:09;99028.25;;;20.19;82.99
41202;BME280;26936;50.524;8.684;2023-05-09T12:17:35;99019.66;;;20.14;83.21
41202;BME280;26936;50.524;8.684;2023-05-09T12:20:01;99017.38;;;20.53;82.70
41202;BME280;26936;50.524;8.684;2023-05-09T12:22:29;99018.09;;;20.65;81.05
41202;BME280;26936;50.524;8.684;2023-05-09T12:24:55;99017.97;;;20.81;78.62
41202;BME280;26936;50.524;8.684;2023-05-09T12:27:20;99011.81;;;20.72;78.13
41202;BME280;26936;50.524;8.684;2023-05-09T12:29:46;99010.22;;;20.71;78.74
41202;BME280;26936;50.524;8.684;2023-05-09T12:32:15;99013.78;;;20.47;81.21
41202;BME280;26936;50.524;8.684;2023-05-09T12:34:41;99008.34;;;20.44;78.87
41202;BME280;26936;50.524;8.684;2023-05-09T12:37:16;98999.88;;;20.21;80.86
41202;BME280;26936;50.524;8.684;2023-05-09T12:42:30;98997.59;;;20.14;82.20
41202;BME280;26936;50.524;8.684;2023-05-09T12:44:56;98996.91;;;19.86;81.63
41202;BME280;26936;50.524;8.684;2023-05-09T12:47:25;98996.44;;;19.71;81.35
41202;BME280;26936;50.524;8.684;2023-05-09T12:49:51;98986.88;;;19.52;83.97
41202;BME280;26936;50.524;8.684;2023-05-09T12:52:17;98993.63;;;19.60;83.32
41202;BME280;26936;50.524;8.684;2023-05-09T12:54:46;98974.09;;;19.70;82.67
41202;BME280;26936;50.524;8.684;2023-05-09T12:57:23;98979.75;;;19.81;82.92
41202;BME280;26936;50.524;8.684;2023-05-09T12:59:49;98969.00;;;20.03;81.21
41202;BME280;26936;50.524;8.684;2023-05-09T13:02:15;98964.75;;;20.27;78.68
41202;BME280;26936;50.524;8.684;2023-05-09T13:04:40;98965.03;;;20.23;79.21
41202;BME280;26936;50.524;8.684;2023-05-09T13:07:09;98958.03;;;20.18;81.13
41202;BME280;26936;50.524;8.684;2023-05-09T13:09:35;98963.50;;;20.16;78.69
41202;BME280;26936;50.524;8.684;2023-05-09T13:12:02;98951.38;;;19.94;77.00
41202;BME280;26936;50.524;8.684;2023-05-09T13:14:28;98949.06;;;19.92;78.90
41202;BME280;26936;50.524;8.684;2023-05-09T13:16:54;98936.56;;;19.95;78.28